Time;durP1;ratioP1;P1;durP2;ratioP2;P2;SDS_P1;SDS_P2;PMS_P1;PMS_P2;Temp;Humidity;BMP_temperature;BMP_pressure;BME280_temperature;BME280_humidity;BME280_pressure;Samples;Min_cycle;Max_cycle;Signal;HPM_P1;HPM_P2
2023/09/12 00:00:23;;;;;;;17.33;9.25;;;512.90;2380.80;;;;;;5124222;28;20043;-84
2023/09/12 00:02:52;;;;;;;19.50;9.23;;;512.60;2380.80;;;;;;5120517;28;20020;-82
2023/09/12 00:05:17;;;;;;;19.45;9.40;;;512.50;2380.80;;;;;;5126457;28;20008;-82
2023/09/12 00:07:45;;;;;;;17.38;8.55;;;512.50;2380.80;;;;;;5125340;28;20051;-90
2023/09/12 00:10:10;;;;;;;18.58;9.02;;;512.50;2380.80;;;;;;5121632;28;20031;-83
2023/09/12 00:12:36;;;;;;;17.00;8.80;;;512.40;2380.80;;;;;;5123785;28;20032;-87
2023/09/12 00:15:04;;;;;;;20.00;10.23;;;512.40;2380.80;;;;;;5123561;28;20019;-83
2023/09/12 00:17:30;;;;;;;21.10;9.82;;;512.40;2380.80;;;;;;5123834;28;20025;-84
2023/09/12 00:19:56;;;;;;;19.75;9.98;;;512.40;2380.80;;;;;;5141080;27;20008;-86
2023/09/12 00:22:21;;;;;;;19.33;10.02;;;512.40;2380.80;;;;;;5128793;28;20028;-83
2023/09/12 00:24:47;;;;;;;22.38;10.43;;;512.30;2380.80;;;;;;5128807;28;20032;-87
2023/09/12 00:27:13;;;;;;;20.25;10.23;;;512.30;2380.80;;;;;;5128768;28;20020;-83
2023/09/12 00:29:39;;;;;;;20.23;10.25;;;512.20;2380.80;;;;;;5127230;28;20053;-86
2023/09/12 00:32:05;;;;;;;20.25;9.90;;;512.10;2380.80;;;;;;5126339;28;20012;-85
2023/09/12 00:34:30;;;;;;;19.65;9.40;;;512.10;2380.80;;;;;;5127473;28;20020;-85
2023/09/12 00:36:56;;;;;;;17.70;9.43;;;512.00;2380.80;;;;;;5128293;28;20066;-86
2023/09/12 00:39:22;;;;;;;15.98;8.90;;;487.30;2380.80;;;;;;5124175;28;20008;-86
2023/09/12 00:41:47;;;;;;;16.08;8.52;;;487.30;2380.80;;;;;;5125400;28;20020;-86
2023/09/12 00:44:15;;;;;;;16.05;9.02;;;487.20;2380.80;;;;;;5129679;28;20065;-84
2023/09/12 00:46:41;;;;;;;14.60;8.30;;;487.20;2380.80;;;;;;5126270;28;20024;-85
2023/09/12 00:49:08;;;;;;;13.60;7.90;;;487.10;2380.80;;;;;;5127740;28;20069;-86
2023/09/12 00:51:35;;;;;;;14.70;8.63;;;487.20;2380.80;;;;;;5131518;28;20008;-86
2023/09/12 00:54:01;;;;;;;20.67;8.90;;;487.20;2380.80;;;;;;5131048;28;20023;-84
2023/09/12 00:56:27;;;;;;;14.77;8.90;;;487.20;2380.80;;;;;;5127494;28;20016;-84
2023/09/12 00:58:53;;;;;;;15.95;8.60;;;487.10;2380.80;;;;;;5125251;28;20946;-84
2023/09/12 01:01:20;;;;;;;15.48;8.43;;;487.10;2380.80;;;;;;5126277;28;20054;-85
2023/09/12 01:03:46;;;;;;;15.30;7.53;;;487.10;2380.80;;;;;;5130390;28;20147;-83
2023/09/12 01:06:14;;;;;;;15.50;8.32;;;487.00;2380.80;;;;;;5124734;28;20016;-86
2023/09/12 01:08:40;;;;;;;15.45;8.32;;;487.00;2380.80;;;;;;5130675;28;20043;-84
2023/09/12 01:11:06;;;;;;;12.43;7.75;;;487.00;2380.80;;;;;;5126864;28;20043;-85
2023/09/12 01:13:31;;;;;;;14.98;7.70;;;486.90;2380.80;;;;;;5124838;28;20036;-82
2023/09/12 01:15:57;;;;;;;13.18;7.53;;;486.90;2380.80;;;;;;5127424;28;20018;-85
2023/09/12 01:18:24;;;;;;;13.18;7.75;;;486.80;2380.80;;;;;;5130022;28;20008;-85
2023/09/12 01:21:41;;;;;;;16.65;7.60;;;486.80;2380.80;;;;;;5126418;28;20103;-85
2023/09/12 01:24:40;;;;;;;13.07;7.43;;;486.70;2380.80;;;;;;5127364;28;20016;-85
2023/09/12 01:27:30;;;;;;;13.02;8.10;;;486.70;2380.80;;;;;;5128578;28;20076;-85
2023/09/12 01:30:01;;;;;;;16.65;7.47;;;;;;;;;;5126459;28;20031;-82
2023/09/12 01:32:29;;;;;;;13.45;7.57;;;486.80;2380.80;;;;;;5131481;28;20022;-84
2023/09/12 01:34:55;;;;;;;13.40;8.10;;;486.80;2380.80;;;;;;5129963;28;20105;-86
2023/09/12 01:37:21;;;;;;;13.38;7.93;;;486.60;2380.80;;;;;;5128931;28;20103;-83
2023/09/12 01:39:47;;;;;;;15.88;8.05;;;486.50;2380.80;;;;;;5129993;28;20024;-83
2023/09/12 01:42:17;;;;;;;13.65;8.05;;;486.40;2380.80;;;;;;5127774;28;20032;-82
2023/09/12 01:44:46;;;;;;;15.25;8.57;;;486.70;2380.80;;;;;;5133704;28;20057;-85
2023/09/12 01:47:13;;;;;;;14.50;8.25;;;486.60;2380.80;;;;;;5127560;28;20032;-84
2023/09/12 01:49:46;;;;;;;16.85;7.97;;;486.40;2380.80;;;;;;5125759;28;20023;-85
2023/09/12 01:52:13;;;;;;;14.95;8.25;;;486.40;2380.80;;;;;;5124266;28;20038;-83
2023/09/12 01:54:42;;;;;;;14.70;8.25;;;461.70;2380.80;;;;;;5128332;28;20064;-85
2023/09/12 01:57:09;;;;;;;13.43;8.20;;;461.70;2380.80;;;;;;5125604;28;20008;-81
2023/09/12 01:59:35;;;;;;;14.35;8.13;;;;;;;;;;5126741;28;20024;-80
2023/09/12 02:02:01;;;;;;;15.57;8.10;;;;;;;;;;5127808;28;20030;-81
2023/09/12 02:04:27;;;;;;;15.95;8.35;;;;;;;;;;5129424;28;20060;-82
2023/09/12 02:06:53;;;;;;;13.27;7.85;;;;;;;;;;5126459;28;20008;-81
2023/09/12 02:09:19;;;;;;;15.85;8.07;;;;;;;;;;5129031;28;20039;-82
2023/09/12 02:11:46;;;;;;;13.80;8.10;;;;;;;;;;5128813;28;20079;-83
2023/09/12 02:14:12;;;;;;;15.98;8.13;;;;;;;;;;5125311;28;20019;-85
2023/09/12 02:16:38;;;;;;;14.52;8.10;;;;;;;;;;5127782;28;20024;-84
2023/09/12 02:19:06;;;;;;;14.52;8.38;;;461.70;2380.80;;;;;;5128898;28;20011;-84
2023/09/12 02:21:34;;;;;;;13.90;8.18;;;461.60;2380.80;;;;;;5124952;28;20034;-82
2023/09/12 02:24:00;;;;;;;13.60;7.57;;;461.40;2380.80;;;;;;5128045;28;20027;-81
2023/09/12 02:26:26;;;;;;;15.90;8.70;;;461.40;2380.80;;;;;;5127447;28;20127;-83
2023/09/12 02:28:52;;;;;;;14.43;7.85;;;461.40;2380.80;;;;;;5127894;28;20654;-83
2023/09/12 02:31:19;;;;;;;14.48;7.68;;;461.40;2380.80;;;;;;5126076;28;20019;-84
2023/09/12 02:33:45;;;;;;;13.68;7.97;;;461.40;2380.80;;;;;;5122676;28;20016;-82
2023/09/12 02:36:11;;;;;;;14.25;8.13;;;461.30;2380.80;;;;;;5130806;28;20119;-85
2023/09/12 02:38:36;;;;;;;14.40;8.15;;;461.30;2380.80;;;;;;5129243;28;20016;-85
2023/09/12 02:41:02;;;;;;;16.13;8.15;;;461.30;2380.80;;;;;;5127714;28;20046;-87
2023/09/12 02:43:28;;;;;;;16.70;8.57;;;461.30;2380.80;;;;;;5125704;28;20023;-83
2023/09/12 02:45:54;;;;;;;14.80;8.50;;;461.30;2380.80;;;;;;5122136;28;20028;-83
2023/09/12 02:48:20;;;;;;;15.07;8.32;;;461.30;2380.80;;;;;;5125053;28;20050;-83
2023/09/12 02:50:45;;;;;;;13.60;7.70;;;461.20;2380.80;;;;;;5124954;28;20023;-83
2023/09/12 02:53:11;;;;;;;16.38;8.48;;;461.20;2380.80;;;;;;5125632;28;20019;-83
2023/09/12 02:55:41;;;;;;;16.27;8.45;;;461.10;2380.80;;;;;;5125819;28;20024;-85
2023/09/12 02:58:07;;;;;;;13.07;7.45;;;;;;;;;;5125724;28;20023;-84
2023/09/12 03:00:38;;;;;;;16.00;8.35;;;;;;;;;;5130796;28;20027;-84
2023/09/12 03:03:04;;;;;;;13.57;7.80;;;;;;;;;;5132283;28;20026;-84
2023/09/12 03:05:30;;;;;;;15.40;8.40;;;;;;;;;;5127830;28;20042;-83
2023/09/12 03:07:57;;;;;;;13.73;7.90;;;;;;;;;;5125389;28;20032;-84
2023/09/12 03:10:23;;;;;;;16.13;9.07;;;;;;;;;;5126832;28;20000;-84
2023/09/12 03:12:50;;;;;;;13.68;8.20;;;;;;;;;;5125390;28;20038;-85
2023/09/12 03:15:16;;;;;;;13.95;8.65;;;;;;;;;;5128652;28;20028;-85
2023/09/12 03:17:42;;;;;;;13.13;7.88;;;;;;;;;;5134732;28;20023;-84
2023/09/12 03:20:09;;;;;;;13.45;8.32;;;;;;;;;;5125239;28;20013;-83
2023/09/12 03:22:38;;;;;;;12.57;8.18;;;;;;;;;;5126170;28;20030;-85
2023/09/12 03:25:05;;;;;;;15.65;8.27;;;;;;;;;;5124071;28;20019;-84
2023/09/12 03:27:32;;;;;;;14.43;9.13;;;;;;;;;;5124144;28;20011;-82
2023/09/12 03:30:01;;;;;;;16.48;10.35;;;;;;;;;;5123022;28;20028;-83
2023/09/12 03:32:27;;;;;;;18.23;9.68;;;;;;;;;;5119999;28;20058;-86
2023/09/12 03:34:53;;;;;;;15.82;9.93;;;;;;;;;;5123095;28;20021;-83
2023/09/12 03:37:19;;;;;;;16.45;10.30;;;;;;;;;;5125889;28;20028;-85
2023/09/12 03:39:45;;;;;;;16.27;11.52;;;;;;;;;;5123100;28;20031;-82
2023/09/12 03:42:11;;;;;;;18.83;10.07;;;;;;;;;;5124651;28;20008;-83
2023/09/12 03:44:37;;;;;;;12.52;8.57;;;;;;;;;;5123428;28;20103;-84
2023/09/12 03:47:03;;;;;;;11.10;7.43;;;461.00;2380.80;;;;;;5127473;28;20020;-86
2023/09/12 03:49:29;;;;;;;12.32;7.90;;;;;;;;;;5120677;28;20087;-83
2023/09/12 03:51:55;;;;;;;13.82;7.70;;;;;;;;;;5124235;28;20047;-84
2023/09/12 03:54:21;;;;;;;12.80;7.90;;;;;;;;;;5128596;28;20043;-83
2023/09/12 03:56:49;;;;;;;13.63;8.05;;;;;;;;;;5133361;28;20012;-83
2023/09/12 03:59:15;;;;;;;13.82;7.85;;;;;;;;;;5126966;28;20072;-82
2023/09/12 04:01:41;;;;;;;12.50;7.50;;;;;;;;;;5131719;28;20027;-85
2023/09/12 04:04:07;;;;;;;11.90;7.25;;;;;;;;;;5128909;28;20020;-82
2023/09/12 04:06:33;;;;;;;12.27;7.60;;;;;;;;;;5133608;28;20020;-84
2023/09/12 04:08:59;;;;;;;14.68;7.90;;;;;;;;;;5131473;28;20020;-86
2023/09/12 04:11:25;;;;;;;11.98;7.65;;;;;;;;;;5124043;28;20018;-82
2023/09/12 04:13:51;;;;;;;15.32;8.40;;;;;;;;;;5125991;28;20019;-85
2023/09/12 04:16:17;;;;;;;14.18;8.50;;;;;;;;;;5127771;28;20044;-82
2023/09/12 04:18:45;;;;;;;15.07;8.07;;;;;;;;;;5126170;28;20008;-83
2023/09/12 04:21:11;;;;;;;14.90;8.27;;;;;;;;;;5128768;28;20050;-83
2023/09/12 04:23:38;;;;;;;12.32;8.45;;;;;;;;;;5130824;28;20033;-83
2023/09/12 04:26:04;;;;;;;13.25;9.55;;;;;;;;;;5128487;28;20032;-85
2023/09/12 04:28:31;;;;;;;15.85;10.27;;;;;;;;;;5127872;28;20012;-84
2023/09/12 04:31:04;;;;;;;18.30;10.68;;;;;;;;;;5123222;28;20004;-83
2023/09/12 04:33:30;;;;;;;21.27;13.18;;;;;;;;;;5128227;28;20020;-83
2023/09/12 04:35:58;;;;;;;31.55;20.15;;;;;;;;;;5129961;28;20028;-85
2023/09/12 04:38:24;;;;;;;32.90;19.10;;;;;;;;;;5130145;28;20043;-84
2023/09/12 04:41:02;;;;;;;26.40;15.00;;;;;;;;;;5127192;28;20034;-84
2023/09/12 04:43:28;;;;;;;23.73;13.40;;;;;;;;;;5129504;28;20028;-85
2023/09/12 04:45:54;;;;;;;20.17;12.45;;;;;;;;;;5128595;28;20016;-82
2023/09/12 04:48:20;;;;;;;25.95;15.32;;;;;;;;;;5126576;28;20020;-84
2023/09/12 04:50:46;;;;;;;28.52;17.77;;;;;;;;;;5125433;28;20034;-83
2023/09/12 04:53:12;;;;;;;30.25;16.70;;;;;;;;;;5129277;28;20088;-81
2023/09/12 04:55:38;;;;;;;22.33;13.65;;;;;;;;;;5128526;28;20004;-85
2023/09/12 04:58:07;;;;;;;19.92;11.60;;;;;;;;;;5127031;28;20032;-86
2023/09/12 05:00:34;;;;;;;17.60;10.30;;;;;;;;;;5124718;28;20061;-86
2023/09/12 05:03:00;;;;;;;19.25;11.93;;;;;;;;;;5131001;28;20016;-84
2023/09/12 05:05:26;;;;;;;17.58;9.88;;;;;;;;;;5128518;28;20034;-87
2023/09/12 05:07:52;;;;;;;15.73;9.30;;;;;;;;;;5128844;28;20060;-85
2023/09/12 05:10:19;;;;;;;16.25;9.52;;;;;;;;;;5129648;28;20030;-85
2023/09/12 05:12:45;;;;;;;17.15;10.23;;;;;;;;;;5133595;28;20062;-87
2023/09/12 05:15:11;;;;;;;18.17;11.27;;;461.40;2380.80;;;;;;5130228;28;20038;-86
2023/09/12 05:17:36;;;;;;;17.30;11.50;;;461.30;2380.80;;;;;;5130920;28;20024;-88
2023/09/12 05:20:05;;;;;;;14.80;10.00;;;461.30;2380.80;;;;;;5122741;28;20040;-85
2023/09/12 05:22:31;;;;;;;16.05;9.98;;;461.40;2380.80;;;;;;5125421;28;20012;-83
2023/09/12 05:24:57;;;;;;;15.48;9.80;;;461.40;2380.80;;;;;;5127196;28;20046;-88
2023/09/12 05:27:22;;;;;;;15.55;9.30;;;461.50;2380.80;;;;;;5127120;28;20012;-88
2023/09/12 05:29:48;;;;;;;22.08;10.27;;;461.60;2380.80;;;;;;5124013;28;20028;-86
2023/09/12 05:32:16;;;;;;;14.63;9.93;;;486.40;2380.80;;;;;;5132384;28;20016;-88
2023/09/12 05:34:43;;;;;;;17.77;10.63;;;;;;;;;;5126077;28;20032;-90
2023/09/12 05:37:08;;;;;;;16.60;10.43;;;486.90;2380.80;;;;;;5129191;28;20027;-87
2023/09/12 05:39:34;;;;;;;17.75;11.23;;;487.10;2380.80;;;;;;5129125;28;20044;-85
2023/09/12 05:41:59;;;;;;;19.63;11.18;;;487.10;2380.80;;;;;;5127299;28;20050;-87
2023/09/12 05:44:25;;;;;;;19.80;11.80;;;512.10;2380.80;;;;;;5128476;28;20043;-87
2023/09/12 05:46:52;;;;;;;18.58;12.20;;;512.20;2380.80;;;;;;5129617;28;20146;-86
2023/09/12 05:49:18;;;;;;;23.20;14.38;;;;;;;;;;5123887;28;20039;-86
2023/09/12 05:51:43;;;;;;;28.38;18.08;;;512.80;2380.80;;;;;;5126365;28;20008;-86
2023/09/12 05:54:10;;;;;;;28.98;18.25;;;512.50;2380.80;;;;;;5129857;28;20042;-85
2023/09/12 05:56:36;;;;;;;19.52;12.90;;;512.60;2380.80;;;;;;5130932;28;20019;-86
2023/09/12 05:59:02;;;;;;;17.80;10.93;;;537.60;2406.40;;;;;;5127312;28;20020;-88
2023/09/12 06:01:28;;;;;;;17.02;10.07;;;537.60;2406.40;;;;;;5132776;28;20036;-90
2023/09/12 06:03:53;;;;;;;16.38;10.10;;;537.90;2406.40;;;;;;5123820;28;20023;-85
2023/09/12 06:06:19;;;;;;;18.27;9.93;;;538.00;2406.40;;;;;;5128824;28;20152;-87
2023/09/12 06:08:48;;;;;;;17.27;10.35;;;538.20;2406.40;;;;;;5123999;28;20063;-91
2023/09/12 06:11:15;;;;;;;17.95;11.45;;;538.10;2406.40;;;;;;5127513;28;20024;-84
2023/09/12 06:13:40;;;;;;;17.33;12.30;;;538.50;2406.40;;;;;;5127873;28;20028;-87
2023/09/12 06:16:06;;;;;;;19.27;11.02;;;564.00;2432.00;;;;;;5127214;28;20012;-89
2023/09/12 06:18:34;;;;;;;15.68;10.40;;;640.60;2432.00;;;;;;5127925;28;20092;-85
2023/09/12 06:21:03;;;;;;;13.85;9.77;;;;;;;;;;5128438;28;20076;-84
2023/09/12 06:23:30;;;;;;;12.85;8.63;;;;;;;;;;5123934;28;20017;-88
2023/09/12 06:25:56;;;;;;;13.23;8.20;;;;;;;;;;5126679;28;20034;-84
2023/09/12 06:28:30;;;;;;;11.52;8.07;;;;;;;;;;5125980;28;20108;-84
2023/09/12 06:30:56;;;;;;;10.43;6.97;;;1024.40;1075.20;;;;;;5130291;28;20020;-83
2023/09/12 06:33:23;;;;;;;12.43;7.50;;;1049.60;1075.20;;;;;;5127411;28;20099;-83
2023/09/12 06:35:50;;;;;;;10.43;7.03;;;1050.50;998.40;;;;;;5126892;28;20024;-84
2023/09/12 06:38:16;;;;;;;10.43;6.90;;;1075.80;947.20;;;;;;5120563;28;20032;-84
2023/09/12 06:40:47;;;;;;;12.27;7.75;;;1100.90;972.80;;;;;;5124042;28;20032;-83
2023/09/12 06:43:14;;;;;;;11.52;7.28;;;1100.90;972.80;;;;;;5138575;28;20024;-83
2023/09/12 06:45:43;;;;;;;9.85;6.65;;;1101.10;972.80;;;;;;5138272;28;20061;-83
2023/09/12 06:48:08;;;;;;;12.63;7.50;;;1126.80;921.60;;;;;;5133430;27;20050;-85
2023/09/12 06:50:37;;;;;;;11.35;7.40;;;1152.30;896.00;;;;;;5139036;28;20019;-82
2023/09/12 06:53:06;;;;;;;11.38;7.10;;;1177.90;844.80;;;;;;5139108;28;20071;-82
2023/09/12 06:55:33;;;;;;;11.88;7.40;;;1178.20;793.60;;;;;;5138956;28;20015;-82
2023/09/12 06:57:59;;;;;;;12.10;6.70;;;1203.50;819.20;;;;;;5134524;28;20051;-86
2023/09/12 07:00:26;;;;;;;11.10;7.00;;;1178.40;768.00;;;;;;5118706;28;20008;-85
2023/09/12 07:02:52;;;;;;;10.48;7.22;;;1178.40;768.00;;;;;;5127317;28;20126;-84
2023/09/12 07:05:18;;;;;;;11.18;6.70;;;1177.70;793.60;;;;;;5138619;28;20084;-86
2023/09/12 07:07:43;;;;;;;11.45;7.10;;;1178.20;768.00;;;;;;5126128;27;20028;-84
2023/09/12 07:10:09;;;;;;;13.02;6.78;;;1177.60;793.60;;;;;;5138457;28;20007;-85
2023/09/12 07:12:35;;;;;;;11.10;6.53;;;1152.40;819.20;;;;;;5125042;28;20034;-82
2023/09/12 07:15:01;;;;;;;10.95;6.45;;;1126.70;844.80;;;;;;5118832;28;20009;-84
2023/09/12 07:17:28;;;;;;;10.30;6.78;;;1101.10;844.80;;;;;;5122192;28;20103;-82
2023/09/12 07:19:54;;;;;;;11.32;7.22;;;1050.50;896.00;;;;;;5120632;28;20036;-84
2023/09/12 07:22:22;;;;;;;10.68;6.72;;;998.40;947.20;;;;;;5137660;28;20031;-84
2023/09/12 07:24:48;;;;;;;10.23;6.18;;;947.90;972.80;;;;;;5136135;28;20030;-84
2023/09/12 07:27:14;;;;;;;10.95;6.60;;;922.30;1049.60;;;;;;5125497;28;20040;-83
2023/09/12 07:29:39;;;;;;;10.82;5.60;;;871.10;1100.80;;;;;;5138474;28;20062;-83
2023/09/12 07:32:05;;;;;;;7.93;5.40;;;819.50;1203.20;;;;;;5138300;28;20024;-84
2023/09/12 07:34:31;;;;;;;9.25;5.20;;;819.70;1228.80;;;;;;5128649;28;20019;-84
2023/09/12 07:36:57;;;;;;;8.90;4.82;;;794.50;1228.80;;;;;;5129808;28;20024;-83
2023/09/12 07:39:24;;;;;;;9.40;4.68;;;768.10;1280.00;;;;;;5128527;28;20016;-82
2023/09/12 07:41:50;;;;;;;11.43;4.78;;;768.40;1305.60;;;;;;5126069;28;20036;-78
2023/09/12 07:44:16;;;;;;;6.90;4.40;;;768.00;1331.20;;;;;;5121839;28;20054;-76
2023/09/12 07:46:43;;;;;;;9.15;4.10;;;743.20;1331.20;;;;;;5127795;28;20038;-76
2023/09/12 07:49:09;;;;;;;7.57;4.25;;;768.10;1356.80;;;;;;5123972;28;20036;-78
2023/09/12 07:51:35;;;;;;;8.40;4.32;;;743.20;1382.40;;;;;;5127624;28;20084;-79
2023/09/12 07:54:01;;;;;;;5.82;3.92;;;743.20;1382.40;;;;;;5125458;28;20096;-76
2023/09/12 07:56:27;;;;;;;9.65;4.32;;;743.30;1356.80;;;;;;5124527;28;20067;-77
2023/09/12 07:58:53;;;;;;;7.93;4.38;;;743.00;1382.40;;;;;;5123275;28;20021;-77
2023/09/12 08:01:19;;;;;;;9.23;4.25;;;768.30;1356.80;;;;;;5125005;28;20032;-76
2023/09/12 08:03:44;;;;;;;7.00;4.00;;;768.30;1356.80;;;;;;5121583;28;20047;-77
2023/09/12 08:06:10;;;;;;;12.32;4.13;;;793.70;1356.80;;;;;;5123724;28;20011;-76
2023/09/12 08:08:36;;;;;;;6.13;3.60;;;793.60;1305.60;;;;;;5125695;28;20036;-79
2023/09/12 08:11:03;;;;;;;8.38;3.88;;;768.50;1305.60;;;;;;5123288;28;20024;-75
2023/09/12 08:13:30;;;;;;;7.82;3.72;;;768.30;1331.20;;;;;;5125545;28;20008;-77
2023/09/12 08:15:56;;;;;;;6.75;3.70;;;768.30;1305.60;;;;;;5128345;28;20020;-76
2023/09/12 08:18:26;;;;;;;6.35;3.63;;;743.20;1331.20;;;;;;5123869;28;20058;-75
2023/09/12 08:20:52;;;;;;;5.95;3.30;;;768.10;1331.20;;;;;;5125316;28;20022;-76
2023/09/12 08:23:18;;;;;;;6.68;3.40;;;743.20;1305.60;;;;;;5126060;28;20091;-76
2023/09/12 08:25:43;;;;;;;6.43;3.80;;;768.40;1331.20;;;;;;5124518;28;20027;-77
2023/09/12 08:28:09;;;;;;;9.10;3.88;;;768.80;1305.60;;;;;;5126493;28;20032;-77
2023/09/12 08:30:34;;;;;;;7.60;3.95;;;768.40;1305.60;;;;;;5126547;28;20036;-77
2023/09/12 08:33:03;;;;;;;5.15;3.47;;;768.00;1331.20;;;;;;5124139;28;20032;-78
2023/09/12 08:35:28;;;;;;;7.63;3.60;;;768.40;1305.60;;;;;;5123794;28;20024;-78
2023/09/12 08:37:54;;;;;;;8.98;3.83;;;768.80;1305.60;;;;;;5128572;28;20016;-77
2023/09/12 08:40:23;;;;;;;9.77;3.53;;;793.60;1305.60;;;;;;5129746;28;20080;-78
2023/09/12 08:42:51;;;;;;;5.60;3.17;;;768.80;1280.00;;;;;;5128300;28;20020;-77
2023/09/12 08:45:18;;;;;;;5.47;3.50;;;768.70;1305.60;;;;;;5126291;28;20032;-78
2023/09/12 08:47:46;;;;;;;7.03;3.40;;;768.80;1280.00;;;;;;5126983;28;20073;-78
2023/09/12 08:50:14;;;;;;;4.20;3.15;;;768.80;1305.60;;;;;;5129867;28;20020;-78
2023/09/12 08:52:43;;;;;;;6.68;3.60;;;768.80;1280.00;;;;;;5128761;28;20117;-79
2023/09/12 08:55:10;;;;;;;7.00;3.50;;;768.80;1305.60;;;;;;5130896;28;20019;-78
2023/09/12 08:57:39;;;;;;;8.10;3.40;;;793.90;1280.00;;;;;;5128456;28;20016;-80
2023/09/12 09:00:08;;;;;;;5.32;3.50;;;794.20;1254.40;;;;;;5126081;28;20020;-81
2023/09/12 09:02:40;;;;;;;5.40;3.45;;;794.10;1280.00;;;;;;5130846;28;20035;-78
2023/09/12 09:05:11;;;;;;;5.32;3.50;;;793.80;1280.00;;;;;;5129531;28;20015;-79
2023/09/12 09:07:38;;;;;;;5.10;3.30;;;794.00;1280.00;;;;;;5125421;28;20035;-78
2023/09/12 09:10:10;;;;;;;6.82;3.20;;;819.20;1280.00;;;;;;5143870;27;20008;-82
2023/09/12 09:12:39;;;;;;;6.13;3.30;;;819.20;1280.00;;;;;;5124866;28;20011;-81
2023/09/12 09:15:29;;;;;;;6.80;3.88;;;794.40;1254.40;;;;;;5126024;28;20032;-78
2023/09/12 09:17:57;;;;;;;5.35;3.20;;;819.20;1228.80;;;;;;5129116;28;20015;-81
2023/09/12 09:20:38;;;;;;;5.72;3.50;;;819.20;1228.80;;;;;;5129201;28;20020;-78
2023/09/12 09:23:06;;;;;;;6.63;3.47;;;794.20;1254.40;;;;;;5131172;28;20016;-79
2023/09/12 09:25:39;;;;;;;4.63;3.25;;;819.50;1254.40;;;;;;5126853;28;20013;-77
2023/09/12 09:28:05;;;;;;;7.90;3.50;;;819.50;1228.80;;;;;;5126057;28;20024;-78
2023/09/12 09:30:42;;;;;;;5.20;2.97;;;819.20;1228.80;;;;;;5126901;28;20028;-76
2023/09/12 09:33:09;;;;;;;5.47;3.60;;;819.80;1203.20;;;;;;5127395;28;20012;-76
2023/09/12 09:35:36;;;;;;;7.53;3.75;;;819.60;1228.80;;;;;;5128082;28;20087;-80
2023/09/12 09:38:05;;;;;;;4.90;3.33;;;794.40;1228.80;;;;;;5129022;28;20039;-80
2023/09/12 09:40:32;;;;;;;7.13;3.70;;;819.70;1228.80;;;;;;5128834;28;20019;-77
2023/09/12 09:43:02;;;;;;;5.18;3.50;;;820.00;1228.80;;;;;;5124997;28;20100;-79
2023/09/12 09:45:29;;;;;;;6.38;3.58;;;845.10;1228.80;;;;;;5128455;27;20036;-80
2023/09/12 09:48:08;;;;;;;6.22;3.88;;;845.10;1203.20;;;;;;5127681;28;20052;-81
2023/09/12 09:50:37;;;;;;;6.93;3.47;;;845.30;1203.20;;;;;;5126037;28;20004;-76
2023/09/12 09:53:08;;;;;;;5.88;3.50;;;845.30;1228.80;;;;;;5128128;28;20007;-75
2023/09/12 09:55:34;;;;;;;6.82;3.33;;;845.30;1228.80;;;;;;5126823;28;20036;-76
2023/09/12 09:58:00;;;;;;;5.43;3.33;;;844.80;1228.80;;;;;;5127966;28;20019;-78
2023/09/12 10:00:28;;;;;;;8.02;3.50;;;844.80;1228.80;;;;;;5125126;28;20016;-76
2023/09/12 10:02:55;;;;;;;6.63;3.67;;;819.70;1203.20;;;;;;5125623;28;20043;-75
2023/09/12 10:05:26;;;;;;;5.95;3.15;;;845.00;1203.20;;;;;;5128340;28;20022;-76
2023/09/12 10:07:54;;;;;;;6.78;3.60;;;820.00;1177.60;;;;;;5126900;28;20027;-76
2023/09/12 10:10:21;;;;;;;6.20;3.38;;;820.10;1177.60;;;;;;5129161;28;20016;-77
2023/09/12 10:12:57;;;;;;;6.85;3.17;;;845.00;1177.60;;;;;;5127115;28;20039;-77
2023/09/12 10:15:26;;;;;;;7.18;3.10;;;844.80;1177.60;;;;;;5128590;28;20033;-76
2023/09/12 10:18:08;;;;;;;9.18;3.53;;;844.90;1177.60;;;;;;5129020;28;20046;-77
2023/09/12 10:20:45;;;;;;;7.13;3.42;;;844.80;1152.00;;;;;;5127636;28;20032;-77
2023/09/12 10:23:30;;;;;;;5.38;3.10;;;819.70;1177.60;;;;;;5131001;28;20038;-76
2023/09/12 10:25:58;;;;;;;6.50;2.97;;;819.70;1177.60;;;;;;5131231;28;20031;-77
2023/09/12 10:28:26;;;;;;;9.32;3.13;;;819.70;1177.60;;;;;;5129776;28;20024;-79
2023/09/12 10:30:53;;;;;;;7.35;3.22;;;820.00;1177.60;;;;;;5128308;28;20012;-77
2023/09/12 10:33:20;;;;;;;4.70;3.40;;;845.20;1203.20;;;;;;5122948;28;20024;-78
2023/09/12 10:35:48;;;;;;;6.05;3.10;;;845.60;1152.00;;;;;;5133309;28;20040;-79
2023/09/12 10:38:18;;;;;;;6.55;3.33;;;845.10;1152.00;;;;;;5132230;28;20027;-78
2023/09/12 10:40:47;;;;;;;5.55;3.58;;;845.10;1177.60;;;;;;5126634;28;20506;-77
2023/09/12 10:43:14;;;;;;;5.90;3.10;;;845.00;1177.60;;;;;;5124757;28;20083;-77
2023/09/12 10:45:41;;;;;;;7.13;3.50;;;845.30;1177.60;;;;;;5127349;28;20027;-81
2023/09/12 10:48:09;;;;;;;6.22;3.20;;;845.60;1152.00;;;;;;5123711;28;20039;-77
2023/09/12 10:50:35;;;;;;;8.65;3.55;;;870.40;1126.40;;;;;;5124928;28;20016;-76
2023/09/12 10:53:15;;;;;;;5.93;2.97;;;845.60;1126.40;;;;;;5127488;28;20023;-76
2023/09/12 10:55:42;;;;;;;4.47;2.80;;;845.50;1126.40;;;;;;5125381;28;20043;-79
2023/09/12 10:58:10;;;;;;;5.15;2.92;;;845.60;1075.20;;;;;;5144099;27;20012;-79
2023/09/12 11:00:38;;;;;;;7.05;3.03;;;870.40;1100.80;;;;;;5122604;28;20067;-76
2023/09/12 11:03:26;;;;;;;7.43;3.00;;;870.40;1100.80;;;;;;5123716;28;20019;-76
2023/09/12 11:05:54;;;;;;;6.65;3.10;;;896.00;1100.80;;;;;;5127307;28;20233;-77
2023/09/12 11:08:20;;;;;;;5.47;3.30;;;870.70;1075.20;;;;;;5124331;28;20028;-77
2023/09/12 11:11:20;;;;;;;6.53;3.25;;;870.90;1152.00;;;;;;5127766;28;20048;-76
2023/09/12 11:13:46;;;;;;;5.30;3.35;;;871.20;1152.00;;;;;;5127001;28;20023;-77
2023/09/12 11:16:20;;;;;;;5.20;3.25;;;;;;;;;;5126708;28;20034;-79
2023/09/12 11:19:18;;;;;;;6.68;2.97;;;871.20;1177.60;;;;;;5123048;28;20038;-77
2023/09/12 11:21:49;;;;;;;4.45;2.90;;;871.20;1177.60;;;;;;5123708;28;20095;-75
2023/09/12 11:24:16;;;;;;;4.47;3.10;;;;;;;;;;5123503;28;20059;-74
2023/09/12 11:26:57;;;;;;;8.35;3.38;;;;;;;;;;5125703;28;20058;-78
2023/09/12 11:29:44;;;;;;;6.63;2.92;;;;;;;;;;5122554;28;20065;-77
2023/09/12 11:32:10;;;;;;;7.90;3.13;;;896.70;1152.00;;;;;;5126036;28;20008;-77
2023/09/12 11:34:45;;;;;;;5.93;3.10;;;;;;;;;;5122408;28;20015;-76
2023/09/12 11:37:22;;;;;;;5.07;3.03;;;896.10;1152.00;;;;;;5126067;28;20040;-78
2023/09/12 11:39:50;;;;;;;6.97;3.33;;;871.30;1126.40;;;;;;5121886;28;20043;-74
2023/09/12 11:42:16;;;;;;;5.88;3.00;;;871.20;1152.00;;;;;;5124962;28;20016;-76
2023/09/12 11:44:44;;;;;;;5.82;3.28;;;896.30;1126.40;;;;;;5124273;28;20047;-78
2023/09/12 11:47:12;;;;;;;4.40;2.92;;;896.50;1152.00;;;;;;5126237;28;20080;-75
2023/09/12 11:49:39;;;;;;;7.88;3.53;;;896.50;1126.40;;;;;;5126980;28;20035;-77
2023/09/12 11:52:13;;;;;;;4.97;2.90;;;896.40;1126.40;;;;;;5123286;28;20024;-77
2023/09/12 11:54:42;;;;;;;6.55;2.85;;;;;;;;;;5124821;28;20049;-77
2023/09/12 11:57:10;;;;;;;6.97;3.30;;;;;;;;;;5124881;28;20026;-86
2023/09/12 11:59:40;;;;;;;4.32;2.45;;;;;;;;;;5132787;28;20052;-89
2023/09/12 12:02:10;;;;;;;5.20;2.53;;;;;;;;;;5128803;28;20014;-84
2023/09/12 12:04:36;;;;;;;8.10;3.08;;;;;;;;;;5126707;28;20049;-84
2023/09/12 12:07:06;;;;;;;6.57;3.00;;;;;;;;;;5125073;28;20024;-89
2023/09/12 12:09:33;;;;;;;6.15;2.83;;;;;;;;;;5124499;28;20040;-83
2023/09/12 12:12:14;;;;;;;5.18;2.78;;;921.70;1075.20;;;;;;5127590;28;20008;-88
2023/09/12 12:14:41;;;;;;;5.18;2.92;;;;;;;;;;5128133;28;20096;-86
2023/09/12 12:17:11;;;;;;;7.15;2.90;;;;;;;;;;5131061;28;20008;-83
2023/09/12 12:19:38;;;;;;;5.82;2.78;;;;;;;;;;5128554;27;20048;-87
2023/09/12 12:22:05;;;;;;;8.52;3.22;;;;;;;;;;5129493;28;20030;-85
2023/09/12 12:24:41;;;;;;;5.93;3.25;;;;;;;;;;5127875;28;20059;-84
2023/09/12 12:27:09;;;;;;;6.90;2.80;;;;;;;;;;5128772;28;20020;-82
2023/09/12 12:29:37;;;;;;;6.53;2.80;;;;;;;;;;5130628;28;20036;-82
2023/09/12 12:32:05;;;;;;;5.00;2.95;;;;;;;;;;5132491;28;20027;-84
2023/09/12 12:34:31;;;;;;;6.57;2.90;;;;;;;;;;5124897;28;20024;-84
2023/09/12 12:36:57;;;;;;;6.25;2.95;;;947.30;998.40;;;;;;5128220;28;20016;-90
2023/09/12 12:39:23;;;;;;;6.30;3.10;;;947.40;972.80;;;;;;5128465;28;20044;-85
2023/09/12 12:41:53;;;;;;;6.22;2.80;;;947.30;998.40;;;;;;5129377;28;20032;-82
2023/09/12 12:44:18;;;;;;;6.63;2.80;;;922.50;972.80;;;;;;5126830;28;20073;-83
2023/09/12 12:46:54;;;;;;;6.10;2.78;;;922.10;972.80;;;;;;5129888;28;20027;-84
2023/09/12 12:49:21;;;;;;;5.28;2.70;;;922.40;998.40;;;;;;5129984;28;20057;-84
2023/09/12 12:51:48;;;;;;;6.95;2.88;;;922.30;998.40;;;;;;5129465;28;20024;-82